BEL4PA EDDK-EBBR
Flight info
| Callsign | BEL4PA |
|---|---|
| Flight time | 0h 33m |
| Altitude | 16000 |
| Route | NVO3B NVO M170 LNO |
| Aircraft | A320/M-SDE3FGHIRWY/LB1 |
Departure
| Time | 2026-04-26 17:29 |
|---|---|
| Airport | Cologne Bonn Airport (EDDK) |
Arrival
| Time | 2026-04-26 18:02 |
|---|---|
| Airport | Brussels Airport (EBBR) |
| Time | Latitude | Longitude | Altitude | Speed | Heading |
|---|---|---|---|---|---|
| 2026-04-26 16:45 | 50.88348 | 7.12015 | 236 ft | 0 kts | 36° |
| 2026-04-26 16:45 | 50.88348 | 7.12016 | 236 ft | 0 kts | 36° |
| 2026-04-26 17:13 | 50.88339 | 7.12005 | 232 ft | 4 kts | 37° |
| 2026-04-26 17:13 | 50.88299 | 7.11948 | 234 ft | 4 kts | 56° |
| 2026-04-26 17:14 | 50.88289 | 7.11912 | 233 ft | 4 kts | 109° |
| 2026-04-26 17:14 | 50.88294 | 7.11897 | 237 ft | 0 kts | 126° |
| 2026-04-26 17:16 | 50.88274 | 7.11941 | 234 ft | 10 kts | 126° |
| 2026-04-26 17:16 | 50.88215 | 7.12069 | 232 ft | 19 kts | 127° |
| 2026-04-26 17:16 | 50.88118 | 7.12277 | 232 ft | 28 kts | 126° |
| 2026-04-26 17:17 | 50.87975 | 7.12540 | 232 ft | 35 kts | 139° |
| 2026-04-26 17:17 | 50.87837 | 7.12618 | 234 ft | 14 kts | 160° |
| 2026-04-26 17:17 | 50.87765 | 7.12705 | 232 ft | 13 kts | 137° |
| 2026-04-26 17:17 | 50.87677 | 7.12831 | 232 ft | 23 kts | 137° |
| 2026-04-26 17:18 | 50.87535 | 7.13037 | 232 ft | 33 kts | 137° |
| 2026-04-26 17:18 | 50.87349 | 7.13307 | 232 ft | 38 kts | 137° |
| 2026-04-26 17:18 | 50.87155 | 7.13588 | 238 ft | 37 kts | 137° |
| 2026-04-26 17:18 | 50.86967 | 7.13861 | 246 ft | 36 kts | 137° |
| 2026-04-26 17:19 | 50.86712 | 7.14170 | 257 ft | 8 kts | 141° |
| 2026-04-26 17:19 | 50.86711 | 7.14171 | 257 ft | 0 kts | 140° |
| 2026-04-26 17:20 | 50.86708 | 7.14175 | 258 ft | 1 kts | 140° |
| 2026-04-26 17:20 | 50.86635 | 7.14280 | 261 ft | 21 kts | 137° |
| 2026-04-26 17:20 | 50.86505 | 7.14468 | 266 ft | 26 kts | 137° |
| 2026-04-26 17:21 | 50.86380 | 7.14650 | 273 ft | 23 kts | 137° |
| 2026-04-26 17:21 | 50.86273 | 7.14805 | 279 ft | 20 kts | 137° |
| 2026-04-26 17:21 | 50.86165 | 7.14961 | 285 ft | 22 kts | 137° |
| 2026-04-26 17:21 | 50.86045 | 7.15134 | 295 ft | 25 kts | 137° |
| 2026-04-26 17:22 | 50.85912 | 7.15327 | 296 ft | 27 kts | 137° |
| 2026-04-26 17:22 | 50.85767 | 7.15538 | 299 ft | 30 kts | 137° |
| 2026-04-26 17:22 | 50.85613 | 7.15759 | 306 ft | 30 kts | 137° |
| 2026-04-26 17:22 | 50.85487 | 7.15976 | 308 ft | 18 kts | 99° |
| 2026-04-26 17:23 | 50.85537 | 7.16093 | 309 ft | 12 kts | 47° |
| 2026-04-26 17:23 | 50.85593 | 7.16189 | 308 ft | 11 kts | 48° |
| 2026-04-26 17:23 | 50.85608 | 7.16215 | 308 ft | 0 kts | 47° |
| 2026-04-26 17:24 | 50.85610 | 7.16218 | 309 ft | 4 kts | 47° |
| 2026-04-26 17:25 | 50.85683 | 7.16304 | 308 ft | 18 kts | 4° |
| 2026-04-26 17:25 | 50.85741 | 7.16250 | 307 ft | 1 kts | 318° |
| 2026-04-26 17:25 | 50.85746 | 7.16242 | 309 ft | 2 kts | 316° |
| 2026-04-26 17:25 | 50.85756 | 7.16227 | 307 ft | 3 kts | 317° |
| 2026-04-26 17:26 | 50.85760 | 7.16222 | 307 ft | 0 kts | 316° |
| 2026-04-26 17:26 | 50.85761 | 7.16220 | 306 ft | 0 kts | 316° |
| 2026-04-26 17:26 | 50.85763 | 7.16217 | 306 ft | 1 kts | 316° |
| 2026-04-26 17:26 | 50.85770 | 7.16207 | 306 ft | 2 kts | 316° |
| 2026-04-26 17:27 | 50.85781 | 7.16190 | 306 ft | 3 kts | 317° |
| 2026-04-26 17:27 | 50.85783 | 7.16188 | 306 ft | 0 kts | 317° |
| 2026-04-26 17:27 | 50.85784 | 7.16187 | 306 ft | 0 kts | 317° |
| 2026-04-26 17:28 | 50.85788 | 7.16180 | 308 ft | 1 kts | 317° |
| 2026-04-26 17:28 | 50.85804 | 7.16157 | 306 ft | 10 kts | 317° |
| 2026-04-26 17:28 | 50.86059 | 7.15791 | 296 ft | 87 kts | 317° |
| 2026-04-26 17:28 | 50.86669 | 7.14911 | 273 ft | 147 kts | 318° |
| 2026-04-26 17:29 | 50.87503 | 7.13712 | 584 ft | 170 kts | 320° |
| 2026-04-26 17:29 | 50.88093 | 7.12879 | 1085 ft | 172 kts | 319° |
| 2026-04-26 17:29 | 50.89289 | 7.11165 | 2229 ft | 172 kts | 318° |
| 2026-04-26 17:29 | 50.90162 | 7.09891 | 3024 ft | 169 kts | 319° |
| 2026-04-26 17:30 | 50.90999 | 7.08578 | 3647 ft | 175 kts | 306° |
| 2026-04-26 17:30 | 50.91382 | 7.06645 | 3963 ft | 200 kts | 270° |
| 2026-04-26 17:30 | 50.91021 | 7.04365 | 4261 ft | 228 kts | 253° |
| 2026-04-26 17:30 | 50.90482 | 7.01861 | 4691 ft | 252 kts | 253° |
| 2026-04-26 17:31 | 50.89901 | 6.99192 | 5372 ft | 264 kts | 253° |
| 2026-04-26 17:31 | 50.89303 | 6.96437 | 6267 ft | 268 kts | 254° |
| 2026-04-26 17:31 | 50.88696 | 6.93627 | 7166 ft | 271 kts | 254° |
| 2026-04-26 17:31 | 50.88084 | 6.90778 | 8033 ft | 275 kts | 254° |
| 2026-04-26 17:32 | 50.87467 | 6.87897 | 8946 ft | 278 kts | 254° |
| 2026-04-26 17:32 | 50.86844 | 6.84980 | 9826 ft | 281 kts | 254° |
| 2026-04-26 17:32 | 50.86213 | 6.82021 | 10580 ft | 290 kts | 254° |
| 2026-04-26 17:32 | 50.85547 | 6.78873 | 10850 ft | 313 kts | 254° |
| 2026-04-26 17:33 | 50.84830 | 6.75484 | 11132 ft | 334 kts | 254° |
| 2026-04-26 17:33 | 50.84076 | 6.71957 | 11747 ft | 342 kts | 253° |
| 2026-04-26 17:33 | 50.83298 | 6.68363 | 12484 ft | 347 kts | 253° |
| 2026-04-26 17:34 | 50.81689 | 6.61091 | 14003 ft | 354 kts | 252° |
| 2026-04-26 17:34 | 50.80801 | 6.57439 | 14660 ft | 358 kts | 251° |
| 2026-04-26 17:34 | 50.79869 | 6.53769 | 15305 ft | 361 kts | 250° |
| 2026-04-26 17:34 | 50.78913 | 6.50073 | 15947 ft | 365 kts | 250° |
| 2026-04-26 17:35 | 50.77948 | 6.46343 | 16200 ft | 367 kts | 250° |
| 2026-04-26 17:35 | 50.76975 | 6.42560 | 16278 ft | 381 kts | 250° |
| 2026-04-26 17:35 | 50.75972 | 6.38624 | 16270 ft | 390 kts | 250° |
| 2026-04-26 17:35 | 50.74959 | 6.34639 | 16274 ft | 392 kts | 250° |
| 2026-04-26 17:36 | 50.73942 | 6.30644 | 16267 ft | 392 kts | 250° |
| 2026-04-26 17:36 | 50.72925 | 6.26645 | 16273 ft | 393 kts | 250° |
| 2026-04-26 17:36 | 50.71910 | 6.22644 | 16267 ft | 393 kts | 250° |
| 2026-04-26 17:36 | 50.70889 | 6.18650 | 16268 ft | 393 kts | 250° |
| 2026-04-26 17:37 | 50.69858 | 6.14660 | 16265 ft | 393 kts | 250° |
| 2026-04-26 17:37 | 50.68826 | 6.10682 | 16260 ft | 393 kts | 250° |
| 2026-04-26 17:37 | 50.67797 | 6.06693 | 16261 ft | 393 kts | 250° |
| 2026-04-26 17:38 | 50.65747 | 5.98710 | 16258 ft | 393 kts | 250° |
| 2026-04-26 17:38 | 50.64720 | 5.94717 | 16265 ft | 393 kts | 250° |
| 2026-04-26 17:38 | 50.63704 | 5.90780 | 16262 ft | 393 kts | 250° |
| 2026-04-26 17:38 | 50.62669 | 5.86791 | 16262 ft | 393 kts | 250° |
| 2026-04-26 17:39 | 50.61635 | 5.82800 | 16270 ft | 393 kts | 250° |
| 2026-04-26 17:39 | 50.60707 | 5.78762 | 16261 ft | 392 kts | 257° |
| 2026-04-26 17:39 | 50.60332 | 5.74539 | 16268 ft | 389 kts | 270° |
| 2026-04-26 17:39 | 50.60580 | 5.70319 | 16269 ft | 387 kts | 283° |
| 2026-04-26 17:40 | 50.61426 | 5.66316 | 16266 ft | 386 kts | 296° |
| 2026-04-26 17:40 | 50.62313 | 5.63830 | 16272 ft | 385 kts | 304° |
| 2026-04-26 17:40 | 50.64500 | 5.59436 | 16267 ft | 385 kts | 309° |
| 2026-04-26 17:40 | 50.66181 | 5.56145 | 16268 ft | 385 kts | 309° |
| 2026-04-26 17:41 | 50.67856 | 5.52848 | 16266 ft | 385 kts | 309° |
| 2026-04-26 17:41 | 50.69531 | 5.49544 | 16273 ft | 386 kts | 309° |
| 2026-04-26 17:41 | 50.71204 | 5.46233 | 16272 ft | 386 kts | 308° |
| 2026-04-26 17:41 | 50.72875 | 5.42919 | 16280 ft | 386 kts | 308° |
| 2026-04-26 17:42 | 50.74546 | 5.39598 | 16279 ft | 386 kts | 309° |
| 2026-04-26 17:42 | 50.76216 | 5.36278 | 16279 ft | 386 kts | 308° |
| 2026-04-26 17:42 | 50.77887 | 5.32959 | 16282 ft | 385 kts | 308° |
| 2026-04-26 17:42 | 50.79534 | 5.29691 | 16278 ft | 385 kts | 308° |
| 2026-04-26 17:43 | 50.81204 | 5.26377 | 16278 ft | 385 kts | 308° |
| 2026-04-26 17:43 | 50.82871 | 5.23057 | 16279 ft | 385 kts | 308° |
| 2026-04-26 17:43 | 50.84536 | 5.19737 | 16282 ft | 385 kts | 308° |
| 2026-04-26 17:43 | 50.86097 | 5.16293 | 16285 ft | 385 kts | 300° |
| 2026-04-26 17:44 | 50.87226 | 5.12449 | 16282 ft | 386 kts | 289° |
| 2026-04-26 17:44 | 50.87499 | 5.11072 | 16278 ft | 386 kts | 286° |
| 2026-04-26 17:44 | 50.87901 | 5.07098 | 16288 ft | 386 kts | 275° |
| 2026-04-26 17:44 | 50.88063 | 5.02850 | 16281 ft | 387 kts | 275° |
| 2026-04-26 17:45 | 50.88264 | 4.98598 | 16277 ft | 387 kts | 276° |
| 2026-04-26 17:45 | 50.88478 | 4.94347 | 16279 ft | 387 kts | 276° |
| 2026-04-26 17:45 | 50.88690 | 4.90097 | 16272 ft | 384 kts | 275° |
| 2026-04-26 17:45 | 50.88886 | 4.85977 | 16273 ft | 368 kts | 275° |
| 2026-04-26 17:46 | 50.89067 | 4.81971 | 16274 ft | 364 kts | 275° |
| 2026-04-26 17:46 | 50.89240 | 4.77978 | 16277 ft | 363 kts | 275° |
| 2026-04-26 17:46 | 50.89410 | 4.73992 | 16275 ft | 363 kts | 275° |
| 2026-04-26 17:46 | 50.89576 | 4.70008 | 16275 ft | 362 kts | 275° |
| 2026-04-26 17:47 | 50.89740 | 4.66015 | 16272 ft | 362 kts | 275° |
| 2026-04-26 17:47 | 50.89848 | 4.63384 | 16272 ft | 362 kts | 275° |
| 2026-04-26 17:47 | 50.90065 | 4.58049 | 16274 ft | 362 kts | 275° |
| 2026-04-26 17:47 | 50.90231 | 4.54065 | 16274 ft | 362 kts | 275° |
| 2026-04-26 17:48 | 50.90474 | 4.50104 | 16266 ft | 355 kts | 277° |
| 2026-04-26 17:48 | 50.90794 | 4.46310 | 16141 ft | 342 kts | 279° |
| 2026-04-26 17:48 | 50.91148 | 4.42650 | 16014 ft | 330 kts | 279° |
| 2026-04-26 17:48 | 50.91502 | 4.39116 | 15890 ft | 319 kts | 279° |
| 2026-04-26 17:49 | 50.91836 | 4.35693 | 15765 ft | 309 kts | 279° |
| 2026-04-26 17:49 | 50.92145 | 4.32404 | 15544 ft | 303 kts | 279° |
| 2026-04-26 17:49 | 50.92443 | 4.29111 | 15240 ft | 301 kts | 278° |
| 2026-04-26 17:49 | 50.92732 | 4.25831 | 14909 ft | 299 kts | 278° |
| 2026-04-26 17:50 | 50.93017 | 4.22579 | 14582 ft | 298 kts | 278° |
| 2026-04-26 17:50 | 50.93282 | 4.19329 | 14201 ft | 294 kts | 274° |
| 2026-04-26 17:50 | 50.93082 | 4.16128 | 13534 ft | 293 kts | 257° |
| 2026-04-26 17:50 | 50.92588 | 4.12930 | 12357 ft | 306 kts | 259° |
| 2026-04-26 17:51 | 50.92195 | 4.09623 | 11839 ft | 297 kts | 261° |
| 2026-04-26 17:51 | 50.91836 | 4.06526 | 11717 ft | 276 kts | 261° |
| 2026-04-26 17:51 | 50.91498 | 4.03644 | 11587 ft | 257 kts | 261° |
| 2026-04-26 17:51 | 50.91178 | 4.00946 | 11268 ft | 246 kts | 261° |
| 2026-04-26 17:52 | 50.90853 | 3.98188 | 10331 ft | 263 kts | 260° |
| 2026-04-26 17:52 | 50.90511 | 3.95272 | 9452 ft | 272 kts | 259° |
| 2026-04-26 17:52 | 50.89822 | 3.92504 | 8754 ft | 272 kts | 238° |
| 2026-04-26 17:52 | 50.88710 | 3.90116 | 8085 ft | 272 kts | 233° |
| 2026-04-26 17:53 | 50.87524 | 3.87738 | 7407 ft | 271 kts | 232° |
| 2026-04-26 17:53 | 50.86293 | 3.85549 | 6840 ft | 267 kts | 218° |
| 2026-04-26 17:53 | 50.84699 | 3.84164 | 6281 ft | 262 kts | 196° |
| 2026-04-26 17:54 | 50.81215 | 3.84818 | 5098 ft | 257 kts | 146° |
| 2026-04-26 17:54 | 50.79936 | 3.86664 | 4970 ft | 244 kts | 124° |
| 2026-04-26 17:54 | 50.79207 | 3.88996 | 4834 ft | 231 kts | 103° |
| 2026-04-26 17:54 | 50.79057 | 3.91466 | 4619 ft | 223 kts | 83° |
| 2026-04-26 17:55 | 50.79219 | 3.93875 | 4327 ft | 221 kts | 82° |
| 2026-04-26 17:55 | 50.79379 | 3.96286 | 4054 ft | 220 kts | 82° |
| 2026-04-26 17:55 | 50.79533 | 3.98689 | 3766 ft | 218 kts | 82° |
| 2026-04-26 17:55 | 50.79682 | 4.01065 | 3499 ft | 216 kts | 83° |
| 2026-04-26 17:56 | 50.79827 | 4.03407 | 3251 ft | 214 kts | 82° |
| 2026-04-26 17:56 | 50.80121 | 4.08042 | 3016 ft | 211 kts | 82° |
| 2026-04-26 17:57 | 50.80463 | 4.12675 | 3008 ft | 211 kts | 74° |
| 2026-04-26 17:57 | 50.80982 | 4.14797 | 3008 ft | 209 kts | 64° |
| 2026-04-26 17:57 | 50.81593 | 4.16893 | 3004 ft | 208 kts | 64° |
| 2026-04-26 17:57 | 50.82199 | 4.18985 | 3013 ft | 209 kts | 64° |
| 2026-04-26 17:58 | 50.83995 | 4.25213 | 3005 ft | 201 kts | 65° |
| 2026-04-26 17:59 | 50.85144 | 4.29171 | 2453 ft | 186 kts | 64° |
| 2026-04-26 17:59 | 50.85658 | 4.30946 | 2184 ft | 170 kts | 64° |
| 2026-04-26 17:59 | 50.86130 | 4.32572 | 1949 ft | 157 kts | 65° |
| 2026-04-26 17:59 | 50.86568 | 4.34084 | 1768 ft | 144 kts | 65° |
| 2026-04-26 18:00 | 50.86971 | 4.35476 | 1564 ft | 136 kts | 64° |
| 2026-04-26 18:00 | 50.87358 | 4.36813 | 1390 ft | 133 kts | 64° |
| 2026-04-26 18:00 | 50.87744 | 4.38150 | 1215 ft | 131 kts | 64° |
| 2026-04-26 18:00 | 50.88123 | 4.39474 | 1016 ft | 131 kts | 64° |
| 2026-04-26 18:01 | 50.88498 | 4.40790 | 793 ft | 131 kts | 64° |
| 2026-04-26 18:01 | 50.88868 | 4.42108 | 680 ft | 131 kts | 63° |
| 2026-04-26 18:01 | 50.89251 | 4.43396 | 545 ft | 132 kts | 61° |
| 2026-04-26 18:01 | 50.89645 | 4.44714 | 352 ft | 133 kts | 63° |
| 2026-04-26 18:02 | 50.90029 | 4.46040 | 164 ft | 131 kts | 64° |
| 2026-04-26 18:02 | 50.90148 | 4.46459 | 138 ft | 125 kts | 63° |
| 2026-04-26 18:02 | 50.90527 | 4.47770 | 119 ft | 52 kts | 65° |
| 2026-04-26 18:02 | 50.90661 | 4.48257 | 120 ft | 33 kts | 78° |
| 2026-04-26 18:03 | 50.90626 | 4.48383 | 121 ft | 13 kts | 120° |
| 2026-04-26 18:03 | 50.90562 | 4.48556 | 119 ft | 24 kts | 120° |
| 2026-04-26 18:03 | 50.90496 | 4.48712 | 121 ft | 4 kts | 174° |
| 2026-04-26 18:03 | 50.90465 | 4.48718 | 121 ft | 8 kts | 162° |
| 2026-04-26 18:04 | 50.90451 | 4.48728 | 117 ft | 1 kts | 154° |
| 2026-04-26 18:04 | 50.90446 | 4.48732 | 118 ft | 0 kts | 156° |